createdAt,value
2023-03-20T00:01:24.114Z,99.90
2023-03-20T00:03:52.257Z,99.90
2023-03-20T00:06:24.703Z,99.90
2023-03-20T00:08:53.848Z,99.90
2023-03-20T00:11:33.186Z,99.90
2023-03-20T00:14:07.906Z,99.90
2023-03-20T00:16:40.338Z,99.90
2023-03-20T00:19:31.221Z,99.90
2023-03-20T00:21:59.156Z,99.90
2023-03-20T00:24:26.709Z,99.90
2023-03-20T00:26:54.393Z,99.90
2023-03-20T00:29:23.149Z,99.90
2023-03-20T00:31:50.909Z,99.90
2023-03-20T00:34:20.961Z,99.90
2023-03-20T00:36:48.244Z,99.90
2023-03-20T00:39:15.770Z,99.90
2023-03-20T00:41:48.116Z,99.90
2023-03-20T00:44:15.751Z,99.90
2023-03-20T00:46:44.922Z,99.90
2023-03-20T00:49:12.580Z,99.90
2023-03-20T00:51:39.743Z,99.90
2023-03-20T00:54:15.537Z,99.90
2023-03-20T00:56:59.461Z,99.90
2023-03-20T00:59:38.097Z,99.90
2023-03-20T01:02:05.527Z,99.90
2023-03-20T01:04:41.378Z,99.90
2023-03-20T01:07:13.794Z,99.90
2023-03-20T01:09:41.792Z,99.90
2023-03-20T01:12:12.350Z,99.90
2023-03-20T01:14:42.397Z,99.90
2023-03-20T01:17:20.143Z,99.90
2023-03-20T01:19:47.888Z,99.90
2023-03-20T01:22:17.850Z,99.90
2023-03-20T01:24:45.598Z,99.90
2023-03-20T01:27:18.096Z,99.90
2023-03-20T01:29:46.783Z,99.90
2023-03-20T01:32:17.922Z,99.90
2023-03-20T01:34:49.024Z,99.90
2023-03-20T01:37:23.993Z,99.90
2023-03-20T01:39:52.263Z,99.90
2023-03-20T01:42:19.734Z,99.90
2023-03-20T01:44:47.373Z,99.90
2023-03-20T01:47:21.989Z,99.90
2023-03-20T01:50:24.338Z,99.90
2023-03-20T01:53:11.993Z,99.90
2023-03-20T01:55:47.122Z,99.90
2023-03-20T01:58:20.822Z,99.90
2023-03-20T02:00:49.382Z,99.90
2023-03-20T02:03:19.958Z,99.90
2023-03-20T02:06:07.628Z,99.90
2023-03-20T02:08:53.972Z,99.90
2023-03-20T02:11:24.380Z,99.90
2023-03-20T02:13:55.366Z,99.90
2023-03-20T02:16:24.036Z,99.90
2023-03-20T02:20:04.359Z,99.90
2023-03-20T02:23:16.350Z,99.90
2023-03-20T02:25:54.800Z,99.90
2023-03-20T02:28:48.445Z,99.90
2023-03-20T02:31:42.758Z,99.90
2023-03-20T02:34:36.532Z,99.90
2023-03-20T02:37:51.761Z,99.90
2023-03-20T02:40:19.240Z,99.90
2023-03-20T02:43:11.118Z,99.90
2023-03-20T02:45:54.302Z,99.90
2023-03-20T02:48:41.386Z,99.90
2023-03-20T02:51:57.205Z,99.90
2023-03-20T02:54:48.945Z,99.90
2023-03-20T02:57:40.940Z,99.90
2023-03-20T03:00:24.719Z,99.90
2023-03-20T03:03:05.370Z,99.90
2023-03-20T03:05:57.038Z,99.90
2023-03-20T03:08:28.718Z,99.90
2023-03-20T03:11:03.303Z,99.90
2023-03-20T03:13:33.707Z,99.90
2023-03-20T03:16:07.350Z,99.90
2023-03-20T03:18:39.562Z,99.90
2023-03-20T03:21:08.238Z,99.90
2023-03-20T03:23:47.777Z,99.90
2023-03-20T03:26:38.016Z,99.90
2023-03-20T03:29:17.042Z,99.90
2023-03-20T03:31:46.571Z,99.90
2023-03-20T03:34:17.781Z,99.90
2023-03-20T03:36:44.948Z,99.90
2023-03-20T03:39:23.970Z,99.90
2023-03-20T03:42:12.039Z,99.90
2023-03-20T03:44:50.220Z,99.90
2023-03-20T03:47:27.110Z,99.90
2023-03-20T03:50:01.409Z,99.90
2023-03-20T03:52:31.795Z,99.90
2023-03-20T03:55:04.476Z,99.90
2023-03-20T03:57:34.190Z,99.90
2023-03-20T04:00:04.782Z,99.90
2023-03-20T04:02:43.059Z,99.90
2023-03-20T04:05:13.116Z,99.90
2023-03-20T04:07:45.950Z,99.90
2023-03-20T04:10:14.659Z,99.90
2023-03-20T04:12:44.727Z,99.90
2023-03-20T04:15:14.245Z,99.90
2023-03-20T04:17:42.941Z,99.90
2023-03-20T04:20:13.273Z,99.90
2023-03-20T04:22:41.114Z,99.90
2023-03-20T04:25:24.100Z,99.90
2023-03-20T04:27:54.191Z,99.90
2023-03-20T04:30:30.512Z,99.90
2023-03-20T04:33:17.548Z,99.90
2023-03-20T04:36:06.314Z,99.90
2023-03-20T04:38:33.527Z,99.90
2023-03-20T04:41:02.608Z,99.90
2023-03-20T04:43:29.846Z,99.90
2023-03-20T04:45:59.694Z,99.90
2023-03-20T04:48:28.064Z,99.90
2023-03-20T04:50:55.936Z,99.90
2023-03-20T04:53:29.723Z,99.90
2023-03-20T04:55:57.200Z,99.90
2023-03-20T04:58:24.498Z,99.90
2023-03-20T05:00:52.041Z,99.90
2023-03-20T05:03:21.840Z,99.90
2023-03-20T05:05:50.976Z,99.90
2023-03-20T05:08:18.831Z,99.90
2023-03-20T05:10:46.556Z,99.90
2023-03-20T05:13:32.492Z,99.90
2023-03-20T05:16:10.347Z,99.90
2023-03-20T05:18:55.451Z,99.90
2023-03-20T05:21:49.384Z,99.90
2023-03-20T05:24:29.160Z,99.90
2023-03-20T05:27:16.192Z,99.90
2023-03-20T05:29:51.815Z,99.90
2023-03-20T05:32:39.471Z,99.90
2023-03-20T05:35:32.964Z,99.90
2023-03-20T05:38:35.747Z,99.90
2023-03-20T05:41:21.220Z,99.90
2023-03-20T05:44:03.900Z,99.90
2023-03-20T05:46:54.200Z,99.90
2023-03-20T05:49:41.477Z,99.90
2023-03-20T05:52:26.742Z,99.90
2023-03-20T05:55:11.072Z,99.90
2023-03-20T05:58:03.496Z,99.90
2023-03-20T06:00:50.999Z,99.90
2023-03-20T06:03:48.777Z,99.90
2023-03-20T06:06:23.187Z,99.90
2023-03-20T06:08:52.179Z,99.90
2023-03-20T06:11:19.750Z,99.90
2023-03-20T06:13:46.986Z,99.90
2023-03-20T06:16:14.829Z,99.90
2023-03-20T06:18:42.088Z,99.90
2023-03-20T06:21:11.874Z,99.90
2023-03-20T06:23:39.485Z,99.90
2023-03-20T06:26:08.207Z,99.90
2023-03-20T06:28:47.891Z,99.90
2023-03-20T06:31:15.509Z,99.90
2023-03-20T06:33:43.096Z,99.90
2023-03-20T06:36:10.906Z,99.90
2023-03-20T06:38:38.196Z,99.90
2023-03-20T06:41:14.914Z,99.90
2023-03-20T06:43:46.501Z,99.60
2023-03-20T06:46:14.441Z,99.40
2023-03-20T06:48:42.216Z,98.80
2023-03-20T06:51:10.840Z,99.30
2023-03-20T06:53:48.546Z,98.60
2023-03-20T06:56:19.467Z,98.80
2023-03-20T06:58:46.703Z,98.20
2023-03-20T07:01:20.429Z,97.70
2023-03-20T07:03:47.899Z,97.00
2023-03-20T07:06:20.056Z,96.50
2023-03-20T07:08:47.751Z,96.40
2023-03-20T07:11:15.438Z,95.30
2023-03-20T07:13:43.192Z,95.20
2023-03-20T07:16:23.561Z,95.10
2023-03-20T07:18:51.229Z,93.90
2023-03-20T07:21:21.703Z,93.60
2023-03-20T07:23:49.098Z,93.10
2023-03-20T07:26:17.074Z,92.60
2023-03-20T07:28:44.619Z,93.10
2023-03-20T07:31:26.648Z,92.70
2023-03-20T07:34:02.186Z,92.00
2023-03-20T07:36:30.616Z,92.10
2023-03-20T07:38:57.837Z,92.40
2023-03-20T07:41:26.272Z,93.00
2023-03-20T07:44:02.103Z,93.10
2023-03-20T07:46:48.307Z,92.10
2023-03-20T07:49:20.987Z,91.70
2023-03-20T07:51:50.336Z,91.30
2023-03-20T07:54:18.272Z,91.20
2023-03-20T07:56:45.898Z,90.90
2023-03-20T07:59:13.516Z,91.50
2023-03-20T08:01:41.358Z,91.90
2023-03-20T08:04:08.958Z,91.70
2023-03-20T08:06:39.341Z,91.20
2023-03-20T08:09:07.333Z,91.10
2023-03-20T08:11:35.013Z,90.80
2023-03-20T08:14:02.333Z,90.00
2023-03-20T08:16:29.900Z,89.80
2023-03-20T08:19:01.488Z,89.30
2023-03-20T08:21:30.678Z,88.20
2023-03-20T08:23:58.312Z,88.00
2023-03-20T08:26:26.032Z,88.20
2023-03-20T08:28:53.558Z,88.90
2023-03-20T08:31:21.067Z,87.80
2023-03-20T08:33:48.363Z,87.70
2023-03-20T08:36:17.198Z,87.30
2023-03-20T08:38:44.435Z,88.00
2023-03-20T08:41:11.991Z,89.60
2023-03-20T08:43:39.375Z,89.20
2023-03-20T08:46:08.233Z,89.60
2023-03-20T08:48:36.196Z,89.50
2023-03-20T08:51:04.113Z,88.90
2023-03-20T08:53:31.328Z,89.10
2023-03-20T08:55:58.753Z,88.60
2023-03-20T08:58:26.064Z,89.40
2023-03-20T09:00:54.710Z,89.80
2023-03-20T09:03:22.042Z,90.20
2023-03-20T09:05:52.168Z,90.80
2023-03-20T09:08:19.486Z,91.20
2023-03-20T09:10:51.434Z,91.30
2023-03-20T09:13:27.282Z,91.50
2023-03-20T09:15:56.862Z,91.40
2023-03-20T09:18:24.638Z,91.70
2023-03-20T09:28:15.774Z,91.50
2023-03-20T09:30:43.837Z,90.90
2023-03-20T09:33:11.653Z,91.10
2023-03-20T09:35:40.431Z,91.10
2023-03-20T09:38:08.544Z,91.20
2023-03-20T09:40:48.749Z,91.50
2023-03-20T09:43:50.398Z,91.90
2023-03-20T09:46:49.310Z,92.90
2023-03-20T09:49:29.054Z,92.80
2023-03-20T09:51:59.918Z,94.00
2023-03-20T09:54:54.154Z,94.70
2023-03-20T09:57:25.987Z,94.70
2023-03-20T10:00:01.755Z,94.70
2023-03-20T10:03:02.679Z,94.80
2023-03-20T10:05:38.999Z,95.10
2023-03-20T10:08:14.983Z,95.10
2023-03-20T10:10:56.033Z,96.30
2023-03-20T10:13:52.357Z,95.70
2023-03-20T10:16:25.731Z,96.20
2023-03-20T10:19:28.501Z,96.10
2023-03-20T10:22:32.532Z,97.00
2023-03-20T10:25:20.495Z,97.30
2023-03-20T10:27:51.110Z,97.60
2023-03-20T10:30:36.270Z,97.80
2023-03-20T10:33:26.578Z,98.40
2023-03-20T10:36:02.360Z,98.60
2023-03-20T10:38:42.106Z,99.90
2023-03-20T10:41:16.434Z,99.90
2023-03-20T10:43:46.156Z,99.90
2023-03-20T10:46:19.587Z,99.90
2023-03-20T10:48:52.175Z,99.90
2023-03-20T10:51:24.605Z,99.90
2023-03-20T10:53:58.198Z,99.90
2023-03-20T10:56:42.636Z,99.90
2023-03-20T10:59:44.864Z,99.90
2023-03-20T11:02:14.025Z,99.90
2023-03-20T11:04:41.504Z,99.90
2023-03-20T11:07:18.760Z,99.90
2023-03-20T11:09:46.503Z,99.90
2023-03-20T11:12:19.959Z,99.90
2023-03-20T11:14:47.209Z,99.90
2023-03-20T11:17:16.769Z,99.90
2023-03-20T11:19:43.949Z,99.90
2023-03-20T11:22:26.254Z,99.90
2023-03-20T11:24:58.957Z,99.90
2023-03-20T11:27:31.865Z,99.90
2023-03-20T11:30:01.846Z,99.90
2023-03-20T11:32:35.351Z,99.90
2023-03-20T11:35:34.739Z,99.90
2023-03-20T11:38:14.233Z,99.90
2023-03-20T11:40:41.793Z,99.90
2023-03-20T11:43:13.093Z,99.90
2023-03-20T11:45:43.889Z,99.90
2023-03-20T11:48:24.740Z,99.90
2023-03-20T11:51:23.979Z,99.90
2023-03-20T11:54:05.500Z,99.90
2023-03-20T11:56:34.454Z,99.90
2023-03-20T11:59:03.903Z,99.90
2023-03-20T12:01:44.593Z,99.90
2023-03-20T12:04:45.761Z,99.90
2023-03-20T12:07:34.703Z,99.90
2023-03-20T12:10:07.170Z,99.90
2023-03-20T12:12:52.634Z,99.90
2023-03-20T12:15:30.832Z,99.20
2023-03-20T12:18:16.642Z,98.80
2023-03-20T12:21:02.743Z,98.50
2023-03-20T12:23:52.545Z,97.20
2023-03-20T12:26:31.899Z,96.60
2023-03-20T12:29:29.479Z,96.50
2023-03-20T12:32:15.090Z,96.60
2023-03-20T12:34:52.667Z,96.60
2023-03-20T12:37:22.092Z,96.00
2023-03-20T12:39:55.502Z,96.70
2023-03-20T12:42:22.985Z,96.20
2023-03-20T12:44:58.935Z,96.20
2023-03-20T12:47:44.872Z,95.70
2023-03-20T12:50:18.321Z,96.00
2023-03-20T12:52:54.482Z,95.30
2023-03-20T12:55:26.081Z,95.50
2023-03-20T12:58:27.226Z,96.00
2023-03-20T13:01:03.735Z,96.60
2023-03-20T13:04:03.328Z,96.40
2023-03-20T13:06:48.225Z,96.70
2023-03-20T13:09:31.101Z,96.00
2023-03-20T13:12:28.969Z,95.40
2023-03-20T13:15:14.595Z,95.60
2023-03-20T13:17:50.291Z,95.70
2023-03-20T13:20:28.748Z,95.80
2023-03-20T13:23:10.879Z,95.80
2023-03-20T13:25:54.583Z,95.70
2023-03-20T13:28:46.069Z,95.90
2023-03-20T13:31:37.016Z,95.80
2023-03-20T13:34:26.092Z,95.30
2023-03-20T13:37:22.248Z,95.40
2023-03-20T13:40:15.588Z,95.90
2023-03-20T13:42:49.635Z,95.30
2023-03-20T13:45:31.665Z,95.60
2023-03-20T13:48:06.318Z,95.70
2023-03-20T13:50:36.491Z,96.50
2023-03-20T13:53:16.304Z,97.50
2023-03-20T13:56:00.848Z,98.20
2023-03-20T13:58:43.010Z,98.70
2023-03-20T14:01:35.520Z,98.70
2023-03-20T14:04:03.789Z,99.80
2023-03-20T14:06:30.926Z,99.90
2023-03-20T14:09:00.372Z,99.90
2023-03-20T14:11:35.574Z,99.90
2023-03-20T14:14:16.313Z,99.90
2023-03-20T14:16:43.971Z,99.90
2023-03-20T14:19:24.389Z,99.90
2023-03-20T14:21:55.003Z,99.90
2023-03-20T14:24:26.660Z,99.90
2023-03-20T14:26:58.590Z,99.90
2023-03-20T14:29:28.946Z,99.90
2023-03-20T14:32:23.743Z,99.90
2023-03-20T14:34:58.825Z,99.90
2023-03-20T14:37:31.199Z,99.90
2023-03-20T14:40:06.118Z,99.90
2023-03-20T14:42:59.086Z,99.90
2023-03-20T14:45:29.314Z,99.90
2023-03-20T14:48:18.121Z,99.90
2023-03-20T14:51:19.615Z,99.90
2023-03-20T14:53:58.576Z,99.90
2023-03-20T14:56:31.749Z,99.90
2023-03-20T14:59:06.764Z,99.90
2023-03-20T15:01:39.908Z,99.90
2023-03-20T15:04:15.370Z,99.90
2023-03-20T15:06:53.010Z,99.90
2023-03-20T15:09:22.347Z,99.90
2023-03-20T15:11:51.011Z,99.90
2023-03-20T15:14:27.899Z,99.90
2023-03-20T15:17:00.603Z,99.90
2023-03-20T15:19:28.399Z,99.90
2023-03-20T15:21:56.622Z,99.90
2023-03-20T15:24:26.997Z,99.90
2023-03-20T15:26:58.838Z,99.90
2023-03-20T15:29:27.359Z,99.90
2023-03-20T15:32:13.454Z,99.90
2023-03-20T15:34:42.304Z,99.90
2023-03-20T15:37:19.835Z,99.90
2023-03-20T15:39:56.268Z,99.90
2023-03-20T15:42:25.246Z,99.90
2023-03-20T15:44:55.501Z,99.90
2023-03-20T15:47:25.358Z,99.90
2023-03-20T15:49:56.898Z,99.90
2023-03-20T15:52:38.409Z,99.90
2023-03-20T15:55:11.778Z,99.90
2023-03-20T15:57:42.147Z,99.90
2023-03-20T16:00:26.437Z,99.90
2023-03-20T16:02:54.107Z,99.90
2023-03-20T16:05:25.998Z,99.90
2023-03-20T16:07:54.258Z,99.90
2023-03-20T16:10:30.204Z,99.90
2023-03-20T16:12:58.317Z,99.90
2023-03-20T16:15:29.741Z,99.90
2023-03-20T16:18:05.600Z,99.90
2023-03-20T16:21:01.623Z,99.90
2023-03-20T16:23:41.146Z,99.90
2023-03-20T16:26:15.853Z,99.90
2023-03-20T16:28:47.247Z,99.90
2023-03-20T16:31:25.226Z,99.90
2023-03-20T16:33:53.009Z,99.90
2023-03-20T16:36:27.594Z,99.90
2023-03-20T16:39:17.440Z,99.90
2023-03-20T16:41:46.579Z,99.90
2023-03-20T16:44:22.534Z,99.90
2023-03-20T16:47:01.633Z,99.90
2023-03-20T16:49:35.036Z,99.90
2023-03-20T16:52:09.785Z,99.90
2023-03-20T16:54:38.452Z,99.90
2023-03-20T16:57:10.673Z,99.90
2023-03-20T16:59:39.781Z,99.90
2023-03-20T17:02:36.954Z,99.90
2023-03-20T17:05:11.049Z,99.90
2023-03-20T17:07:38.447Z,99.90
2023-03-20T17:10:18.286Z,99.90
2023-03-20T17:12:47.779Z,99.90
2023-03-20T17:15:21.623Z,99.90
2023-03-20T17:17:48.813Z,99.90
2023-03-20T17:20:26.319Z,99.90
2023-03-20T17:22:53.720Z,99.90
2023-03-20T17:25:21.455Z,99.90
2023-03-20T17:27:48.797Z,99.90
2023-03-20T17:30:25.467Z,99.90
2023-03-20T17:32:53.465Z,99.90
2023-03-20T17:35:21.427Z,99.90
2023-03-20T17:37:49.015Z,99.90
2023-03-20T17:40:25.302Z,99.90
2023-03-20T17:42:52.601Z,99.90
2023-03-20T17:45:21.185Z,99.90
2023-03-20T17:47:48.945Z,99.90
2023-03-20T17:50:24.288Z,99.90
2023-03-20T17:52:52.045Z,99.90
2023-03-20T17:55:19.709Z,99.90
2023-03-20T17:57:48.600Z,99.90
2023-03-20T18:00:19.544Z,99.90
2023-03-20T18:02:47.198Z,99.90
2023-03-20T18:05:14.713Z,99.90
2023-03-20T18:07:42.278Z,99.90
2023-03-20T18:10:28.717Z,99.90
2023-03-20T18:12:56.191Z,99.90
2023-03-20T18:15:23.553Z,99.90
2023-03-20T18:17:51.138Z,99.90
2023-03-20T18:20:39.656Z,99.90
2023-03-20T18:23:08.092Z,99.90
2023-03-20T18:25:36.127Z,99.90
2023-03-20T18:28:06.622Z,99.90
2023-03-20T18:30:36.723Z,99.90
2023-03-20T18:33:05.164Z,99.90
2023-03-20T18:35:32.956Z,99.90
2023-03-20T18:38:01.044Z,99.90
2023-03-20T18:40:31.171Z,99.90
2023-03-20T18:42:59.310Z,99.90
2023-03-20T18:45:28.416Z,99.90
2023-03-20T18:47:57.060Z,99.90
2023-03-20T18:50:28.563Z,99.90
2023-03-20T18:52:57.193Z,99.90
2023-03-20T18:55:27.132Z,99.90
2023-03-20T18:57:55.188Z,99.90
2023-03-20T19:00:35.942Z,99.90
2023-03-20T19:03:04.282Z,99.90
2023-03-20T19:05:31.513Z,99.90
2023-03-20T19:07:59.887Z,99.90
2023-03-20T19:10:36.902Z,99.90
2023-03-20T19:13:07.483Z,99.90
2023-03-20T19:15:37.200Z,99.90
2023-03-20T19:18:06.987Z,99.90
2023-03-20T19:21:00.408Z,99.90
2023-03-20T19:23:31.648Z,99.90
2023-03-20T19:25:58.975Z,99.90
2023-03-20T19:28:39.893Z,99.90
2023-03-20T19:31:09.862Z,99.90
2023-03-20T19:33:38.656Z,99.90
2023-03-20T19:36:08.130Z,99.90
2023-03-20T19:38:37.056Z,99.90
2023-03-20T19:41:04.525Z,99.90
2023-03-20T19:43:32.406Z,99.90
2023-03-20T19:46:00.167Z,99.90
2023-03-20T19:51:26.771Z,99.90
2023-03-20T19:53:55.315Z,99.90
2023-03-20T19:56:23.783Z,99.90
2023-03-20T19:58:52.843Z,99.90
2023-03-20T20:01:23.973Z,99.90
2023-03-20T20:03:53.680Z,99.90
2023-03-20T20:06:22.461Z,99.90
2023-03-20T20:08:50.833Z,99.90
2023-03-20T20:11:19.190Z,99.90
2023-03-20T20:14:04.695Z,99.90
2023-03-20T20:16:32.773Z,99.90
2023-03-20T20:19:00.599Z,99.90
2023-03-20T20:22:13.411Z,99.90
2023-03-20T20:24:16.215Z,99.90
2023-03-20T20:26:53.351Z,99.90
2023-03-20T20:29:24.549Z,99.90
2023-03-20T20:31:51.895Z,99.90
2023-03-20T20:38:06.654Z,99.90
2023-03-20T20:39:54.268Z,99.90
2023-03-20T20:42:22.834Z,99.90
2023-03-20T20:44:50.716Z,99.90
2023-03-20T20:47:18.021Z,99.90
2023-03-20T20:49:48.208Z,99.90
2023-03-20T20:52:15.910Z,99.90
2023-03-20T20:54:43.557Z,99.90
2023-03-20T20:57:12.132Z,99.90
2023-03-20T20:59:41.211Z,99.90
2023-03-20T21:02:12.901Z,99.90
2023-03-20T21:04:42.137Z,99.90
2023-03-20T21:07:13.380Z,99.90
2023-03-20T21:09:41.367Z,99.90
2023-03-20T21:12:10.657Z,99.90
2023-03-20T21:14:38.930Z,99.90
2023-03-20T21:17:07.316Z,99.90
2023-03-20T21:19:40.247Z,99.90
2023-03-20T21:22:09.932Z,99.90
2023-03-20T21:24:39.261Z,99.90
2023-03-20T21:27:10.928Z,99.90
2023-03-20T21:29:39.139Z,99.90
2023-03-20T21:32:07.001Z,99.90
2023-03-20T21:34:34.904Z,99.90
2023-03-20T21:37:49.539Z,99.90
2023-03-20T21:39:51.626Z,99.90
2023-03-20T21:42:20.464Z,99.90
2023-03-20T21:45:44.097Z,99.90
2023-03-20T21:51:09.869Z,99.90
2023-03-20T21:53:57.648Z,99.90
2023-03-20T21:56:40.230Z,99.90
2023-03-20T21:59:27.123Z,99.90
2023-03-20T22:21:42.856Z,99.90
2023-03-20T22:24:37.968Z,99.90
2023-03-20T22:38:41.613Z,99.90
2023-03-20T22:41:54.959Z,99.90
2023-03-20T22:46:44.256Z,99.90
2023-03-20T22:49:07.673Z,99.90
2023-03-20T22:51:40.975Z,99.90
2023-03-20T22:54:12.070Z,99.90
2023-03-20T22:56:39.677Z,99.90
2023-03-20T22:59:07.021Z,99.90
2023-03-20T23:04:19.162Z,99.90
2023-03-20T23:06:46.745Z,99.90
2023-03-20T23:09:15.685Z,99.90
2023-03-20T23:11:43.835Z,99.90
2023-03-20T23:14:20.488Z,99.90
2023-03-20T23:16:50.862Z,99.90
2023-03-20T23:19:18.090Z,99.90
2023-03-20T23:21:45.539Z,99.90
2023-03-20T23:24:12.753Z,99.90
2023-03-20T23:26:40.355Z,99.90
2023-03-20T23:29:07.839Z,99.90
2023-03-20T23:31:35.285Z,99.90
2023-03-20T23:34:02.544Z,99.90
2023-03-20T23:36:36.906Z,99.90
2023-03-20T23:39:11.112Z,99.90
2023-03-20T23:42:09.894Z,99.90
2023-03-20T23:44:26.228Z,99.90
2023-03-20T23:46:55.456Z,99.90
2023-03-20T23:49:23.712Z,99.90
2023-03-20T23:51:51.277Z,99.90
2023-03-20T23:54:18.492Z,99.90
2023-03-20T23:56:46.144Z,99.90
